createdAt,value
2023-05-18T00:02:21.495Z,7.15
2023-05-18T00:04:49.268Z,7.19
2023-05-18T00:07:17.161Z,7.17
2023-05-18T00:09:44.858Z,7.11
2023-05-18T00:12:14.019Z,7.06
2023-05-18T00:14:41.726Z,7.02
2023-05-18T00:17:09.622Z,6.95
2023-05-18T00:19:37.339Z,6.93
2023-05-18T00:22:07.735Z,6.94
2023-05-18T00:24:36.940Z,6.97
2023-05-18T00:27:05.050Z,6.95
2023-05-18T00:29:34.642Z,6.97
2023-05-18T00:32:02.593Z,6.95
2023-05-18T00:34:30.990Z,6.94
2023-05-18T00:36:58.829Z,6.89
2023-05-18T00:39:26.626Z,6.92
2023-05-18T00:41:54.489Z,6.89
2023-05-18T00:44:22.143Z,6.85
2023-05-18T00:46:51.126Z,6.83
2023-05-18T00:49:19.165Z,6.81
2023-05-18T00:51:47.598Z,6.80
2023-05-18T00:54:16.120Z,6.82
2023-05-18T00:56:46.751Z,6.81
2023-05-18T00:59:15.609Z,6.83
2023-05-18T01:01:46.181Z,6.83
2023-05-18T01:04:15.542Z,6.83
2023-05-18T01:06:43.867Z,6.83
2023-05-18T01:09:13.592Z,6.85
2023-05-18T01:11:57.315Z,6.86
2023-05-18T01:14:30.738Z,6.85
2023-05-18T01:17:07.401Z,6.86
2023-05-18T01:20:07.085Z,6.83
2023-05-18T01:22:46.139Z,6.81
2023-05-18T01:25:19.866Z,6.80
2023-05-18T01:27:51.472Z,6.78
2023-05-18T01:30:19.797Z,6.75
2023-05-18T01:32:47.771Z,6.77
2023-05-18T01:35:15.486Z,6.76
2023-05-18T01:37:43.419Z,6.77
2023-05-18T01:40:13.047Z,6.78
2023-05-18T01:42:48.055Z,6.79
2023-05-18T01:45:23.254Z,6.79
2023-05-18T01:47:57.570Z,6.79
2023-05-18T01:50:32.266Z,6.82
2023-05-18T01:53:13.569Z,6.82
2023-05-18T01:55:42.873Z,6.84
2023-05-18T01:58:13.427Z,6.85
2023-05-18T02:00:43.307Z,6.86
2023-05-18T02:03:13.217Z,6.89
2023-05-18T02:05:41.313Z,6.88
2023-05-18T02:08:09.464Z,6.86
2023-05-18T02:10:37.379Z,6.87
2023-05-18T02:13:08.139Z,6.87
2023-05-18T02:15:36.335Z,6.84
2023-05-18T02:18:05.725Z,6.84
2023-05-18T02:20:33.646Z,6.83
2023-05-18T02:23:01.524Z,6.82
2023-05-18T02:25:29.571Z,6.80
2023-05-18T02:27:58.373Z,6.78
2023-05-18T02:30:26.036Z,6.82
2023-05-18T02:32:53.895Z,6.80
2023-05-18T02:35:22.974Z,6.78
2023-05-18T02:37:50.869Z,6.79
2023-05-18T02:40:18.811Z,6.75
2023-05-18T02:42:46.618Z,6.74
2023-05-18T02:45:14.487Z,6.73
2023-05-18T02:47:44.580Z,6.73
2023-05-18T02:50:12.610Z,6.73
2023-05-18T02:52:45.332Z,6.69
2023-05-18T02:55:14.252Z,6.62
2023-05-18T02:57:57.252Z,6.59
2023-05-18T03:00:39.273Z,6.60
2023-05-18T03:03:07.107Z,6.56
2023-05-18T03:05:34.914Z,6.53
2023-05-18T03:08:03.977Z,6.57
2023-05-18T03:10:33.788Z,6.55
2023-05-18T03:13:01.519Z,6.52
2023-05-18T03:15:31.663Z,6.47
2023-05-18T03:18:00.671Z,6.49
2023-05-18T03:20:29.916Z,6.39
2023-05-18T03:22:57.599Z,6.35
2023-05-18T03:25:27.171Z,6.34
2023-05-18T03:27:55.351Z,6.35
2023-05-18T03:30:23.600Z,6.33
2023-05-18T03:32:51.763Z,6.32
2023-05-18T03:35:19.484Z,6.33
2023-05-18T03:37:47.269Z,6.34
2023-05-18T03:40:17.023Z,6.37
2023-05-18T03:42:47.659Z,6.38
2023-05-18T03:45:15.422Z,6.40
2023-05-18T03:47:44.857Z,6.44
2023-05-18T03:50:13.933Z,6.45
2023-05-18T03:52:44.549Z,6.49
2023-05-18T03:55:12.387Z,6.50
2023-05-18T03:57:40.472Z,6.47
2023-05-18T04:00:13.021Z,6.51
2023-05-18T04:02:46.722Z,6.51
2023-05-18T04:05:18.593Z,6.49
2023-05-18T04:07:47.548Z,6.54
2023-05-18T04:10:17.142Z,6.56
2023-05-18T04:12:44.940Z,6.63
2023-05-18T04:15:14.665Z,6.69
2023-05-18T04:17:45.577Z,6.71
2023-05-18T04:20:14.480Z,6.79
2023-05-18T04:22:46.471Z,6.83
2023-05-18T04:25:15.172Z,6.88
2023-05-18T04:27:45.359Z,6.90
2023-05-18T04:30:15.233Z,6.92
2023-05-18T04:32:43.840Z,7.00
2023-05-18T04:35:12.668Z,7.01
2023-05-18T04:37:41.600Z,7.10
2023-05-18T04:40:14.286Z,7.21
2023-05-18T04:42:45.352Z,7.25
2023-05-18T04:45:17.910Z,7.32
2023-05-18T04:47:47.164Z,7.38
2023-05-18T04:50:16.923Z,7.39
2023-05-18T04:52:48.125Z,7.50
2023-05-18T04:55:23.066Z,7.57
2023-05-18T04:57:53.854Z,7.66
2023-05-18T05:00:24.090Z,7.69
2023-05-18T05:02:52.165Z,7.84
2023-05-18T05:05:20.278Z,7.85
2023-05-18T05:07:47.991Z,7.90
2023-05-18T05:10:15.691Z,8.06
2023-05-18T05:12:43.646Z,8.18
2023-05-18T05:15:12.135Z,8.27
2023-05-18T05:17:41.583Z,8.35
2023-05-18T05:20:10.576Z,8.50
2023-05-18T05:22:38.503Z,8.55
2023-05-18T05:25:10.122Z,8.66
2023-05-18T05:27:39.338Z,8.68
2023-05-18T05:30:08.486Z,8.76
2023-05-18T05:32:37.840Z,8.89
2023-05-18T05:35:09.587Z,8.97
2023-05-18T05:37:37.567Z,9.11
2023-05-18T05:40:07.700Z,9.25
2023-05-18T05:42:41.683Z,9.29
2023-05-18T05:45:10.256Z,9.38
2023-05-18T05:47:45.867Z,9.48
2023-05-18T05:50:15.820Z,9.63
2023-05-18T05:52:44.497Z,9.77
2023-05-18T05:55:12.541Z,9.92
2023-05-18T05:57:42.721Z,10.11
2023-05-18T06:00:12.763Z,10.10
2023-05-18T06:02:49.759Z,10.23
2023-05-18T06:05:26.714Z,10.21
2023-05-18T06:07:56.205Z,10.42
2023-05-18T06:10:24.088Z,10.63
2023-05-18T06:12:52.089Z,10.70
2023-05-18T06:15:21.092Z,10.82
2023-05-18T06:17:49.167Z,10.89
2023-05-18T06:20:17.539Z,10.77
2023-05-18T06:22:46.760Z,10.79
2023-05-18T06:25:24.249Z,10.93
2023-05-18T06:28:24.667Z,11.09
2023-05-18T06:31:01.324Z,11.37
2023-05-18T06:33:32.372Z,11.31
2023-05-18T06:36:00.168Z,11.30
2023-05-18T06:38:29.226Z,11.54
2023-05-18T06:40:57.039Z,11.76
2023-05-18T06:43:26.841Z,11.81
2023-05-18T06:46:04.290Z,11.69
2023-05-18T06:48:39.221Z,11.81
2023-05-18T06:51:07.930Z,11.82
2023-05-18T06:53:36.966Z,11.76
2023-05-18T06:56:05.734Z,11.96
2023-05-18T06:58:34.641Z,12.19
2023-05-18T07:01:05.455Z,12.21
2023-05-18T07:03:33.664Z,12.36
2023-05-18T07:06:01.916Z,12.56
2023-05-18T07:08:29.600Z,12.46
2023-05-18T07:10:59.060Z,12.72
2023-05-18T07:13:26.971Z,12.82
2023-05-18T07:15:54.634Z,12.78
2023-05-18T07:18:22.600Z,12.89
2023-05-18T07:20:50.365Z,12.73
2023-05-18T07:23:18.006Z,12.78
2023-05-18T07:25:45.654Z,13.01
2023-05-18T07:28:15.144Z,13.18
2023-05-18T07:30:42.764Z,13.19
2023-05-18T07:33:10.446Z,13.42
2023-05-18T07:35:38.089Z,13.48
2023-05-18T07:38:05.745Z,13.25
2023-05-18T07:40:33.410Z,13.49
2023-05-18T07:43:01.212Z,13.46
2023-05-18T07:45:30.732Z,13.52
2023-05-18T07:47:58.756Z,13.40
2023-05-18T07:50:26.731Z,13.62
2023-05-18T07:52:54.493Z,13.66
2023-05-18T07:55:22.150Z,14.11
2023-05-18T07:57:49.837Z,14.06
2023-05-18T08:00:19.364Z,14.19
2023-05-18T08:02:48.521Z,14.23
2023-05-18T08:05:16.629Z,13.93
2023-05-18T08:07:44.283Z,13.95
2023-05-18T08:10:12.243Z,14.21
2023-05-18T08:12:39.890Z,14.59
2023-05-18T08:15:09.410Z,14.70
2023-05-18T08:17:37.083Z,14.76
2023-05-18T08:20:08.465Z,15.22
2023-05-18T08:22:36.273Z,15.30
2023-05-18T08:25:04.212Z,15.51
2023-05-18T08:27:31.963Z,15.72
2023-05-18T08:29:59.593Z,15.73
2023-05-18T08:32:27.739Z,15.53
2023-05-18T08:34:55.595Z,15.64
2023-05-18T08:37:29.058Z,15.32
2023-05-18T08:39:56.922Z,15.52
2023-05-18T08:42:48.499Z,15.54
2023-05-18T08:45:23.621Z,15.89
2023-05-18T08:47:51.973Z,16.17
2023-05-18T08:50:24.320Z,16.43
2023-05-18T08:52:57.270Z,16.54
2023-05-18T08:55:25.047Z,15.96
2023-05-18T08:57:56.698Z,16.63
2023-05-18T09:00:24.958Z,16.62
2023-05-18T09:02:53.196Z,17.17
2023-05-18T09:05:21.879Z,17.35
2023-05-18T09:07:51.052Z,17.57
2023-05-18T09:10:20.081Z,17.86
2023-05-18T09:12:48.215Z,17.49
2023-05-18T09:15:17.558Z,17.75
2023-05-18T09:17:45.347Z,18.12
2023-05-18T09:20:13.379Z,18.27
2023-05-18T09:22:41.261Z,17.81
2023-05-18T09:25:10.998Z,18.32
2023-05-18T09:27:40.146Z,18.44
2023-05-18T09:30:11.995Z,18.22
2023-05-18T09:32:40.280Z,18.58
2023-05-18T09:35:09.255Z,17.87
2023-05-18T09:37:37.173Z,17.34
2023-05-18T09:40:06.642Z,16.62
2023-05-18T09:42:38.780Z,16.55
2023-05-18T09:45:17.536Z,16.61
2023-05-18T09:47:45.401Z,16.37
2023-05-18T09:50:14.415Z,16.86
2023-05-18T09:52:43.686Z,16.69
2023-05-18T09:55:11.865Z,17.21
2023-05-18T09:57:41.634Z,17.23
2023-05-18T10:00:12.698Z,17.16
2023-05-18T10:02:42.014Z,17.18
2023-05-18T10:05:20.413Z,16.64
2023-05-18T10:07:48.598Z,16.64
2023-05-18T10:10:20.034Z,17.00
2023-05-18T10:12:48.493Z,17.29
2023-05-18T10:15:19.707Z,17.84
2023-05-18T10:17:49.026Z,18.11
2023-05-18T10:20:19.382Z,18.03
2023-05-18T10:22:49.127Z,17.73
2023-05-18T10:25:20.438Z,17.18
2023-05-18T10:27:50.661Z,16.96
2023-05-18T10:30:21.967Z,16.99
2023-05-18T10:32:50.200Z,16.45
2023-05-18T10:35:19.403Z,16.81
2023-05-18T10:37:48.861Z,16.65
2023-05-18T10:40:18.802Z,17.07
2023-05-18T10:42:47.506Z,16.82
2023-05-18T10:45:16.704Z,16.72
2023-05-18T10:47:45.941Z,16.75
2023-05-18T10:50:14.388Z,17.32
2023-05-18T10:52:42.734Z,17.19
2023-05-18T10:55:10.687Z,16.67
2023-05-18T10:57:41.771Z,16.70
2023-05-18T11:00:10.960Z,16.79
2023-05-18T11:02:42.881Z,16.53
2023-05-18T11:05:13.274Z,16.42
2023-05-18T11:07:41.558Z,16.53
2023-05-18T11:10:11.863Z,16.14
2023-05-18T11:12:41.449Z,15.92
2023-05-18T11:15:10.837Z,16.29
2023-05-18T11:17:38.531Z,16.46
2023-05-18T11:20:15.512Z,16.46
2023-05-18T11:22:48.465Z,16.90
2023-05-18T11:25:43.385Z,16.94
2023-05-18T11:28:13.741Z,16.80
2023-05-18T11:30:52.312Z,16.83
2023-05-18T11:33:25.595Z,16.78
2023-05-18T11:36:03.396Z,16.78
2023-05-18T11:38:48.457Z,16.63
2023-05-18T11:41:33.776Z,16.53
2023-05-18T11:44:09.827Z,16.60
2023-05-18T11:46:37.877Z,16.44
2023-05-18T11:49:06.104Z,16.69
2023-05-18T11:51:35.400Z,16.69
2023-05-18T11:54:04.152Z,16.47
2023-05-18T11:56:33.538Z,16.20
2023-05-18T11:59:13.856Z,15.84
2023-05-18T12:01:42.782Z,16.29
2023-05-18T12:04:11.311Z,16.78
2023-05-18T12:06:40.450Z,17.20
2023-05-18T12:09:09.018Z,17.10
2023-05-18T12:11:37.668Z,16.61
2023-05-18T12:14:06.966Z,16.35
2023-05-18T12:16:37.221Z,16.13
2023-05-18T12:19:05.180Z,15.97
2023-05-18T12:21:37.117Z,16.13
2023-05-18T12:24:06.834Z,16.32
2023-05-18T12:26:34.953Z,16.29
2023-05-18T12:29:02.985Z,16.42
2023-05-18T12:31:31.595Z,16.31
2023-05-18T12:33:59.683Z,16.37
2023-05-18T12:36:27.376Z,16.06
2023-05-18T12:38:55.260Z,16.35
2023-05-18T12:41:26.440Z,16.45
2023-05-18T12:43:54.955Z,16.54
2023-05-18T12:46:24.024Z,16.27
2023-05-18T12:49:01.445Z,16.28
2023-05-18T12:51:35.050Z,15.84
2023-05-18T12:54:03.504Z,15.73
2023-05-18T12:57:01.501Z,15.93
2023-05-18T12:59:29.940Z,16.07
2023-05-18T13:01:59.034Z,16.10
2023-05-18T13:04:34.991Z,15.96
2023-05-18T13:07:02.914Z,15.69
2023-05-18T13:09:30.562Z,16.08
2023-05-18T13:14:38.833Z,16.33
2023-05-18T13:17:06.717Z,16.18
2023-05-18T13:19:36.630Z,16.23
2023-05-18T13:22:04.379Z,16.21
2023-05-18T13:24:32.089Z,16.53
2023-05-18T13:26:59.708Z,16.71
2023-05-18T13:29:28.778Z,16.56
2023-05-18T13:31:56.451Z,16.64
2023-05-18T13:34:24.252Z,17.23
2023-05-18T13:36:52.003Z,17.14
2023-05-18T13:39:19.816Z,17.39
2023-05-18T13:41:47.437Z,17.60
2023-05-18T13:44:16.065Z,17.72
2023-05-18T13:46:45.126Z,17.58
2023-05-18T13:49:13.345Z,17.43
2023-05-18T13:51:41.361Z,17.33
2023-05-18T13:54:09.125Z,17.03
2023-05-18T13:56:36.784Z,17.33
2023-05-18T13:59:04.539Z,17.36
2023-05-18T14:01:32.641Z,17.54
2023-05-18T14:04:01.672Z,17.24
2023-05-18T14:06:29.472Z,17.49
2023-05-18T14:08:57.121Z,17.64
2023-05-18T14:11:24.764Z,17.57
2023-05-18T14:13:52.400Z,17.31
2023-05-18T14:16:20.095Z,17.27
2023-05-18T14:18:47.741Z,16.68
2023-05-18T14:21:16.953Z,16.79
2023-05-18T14:23:44.564Z,16.56
2023-05-18T14:26:12.203Z,16.55
2023-05-18T14:28:39.853Z,16.63
2023-05-18T14:31:07.541Z,16.52
2023-05-18T14:33:35.290Z,16.32
2023-05-18T14:36:03.103Z,16.24
2023-05-18T14:38:32.172Z,16.50
2023-05-18T14:40:59.829Z,16.61
2023-05-18T14:43:27.468Z,16.48
2023-05-18T14:46:07.249Z,16.47
2023-05-18T14:48:36.377Z,16.37
2023-05-18T14:51:04.353Z,16.20
2023-05-18T14:53:33.333Z,16.50
2023-05-18T14:56:04.615Z,16.34
2023-05-18T14:58:32.423Z,16.50
2023-05-18T15:01:00.077Z,16.31
2023-05-18T15:03:28.417Z,16.48
2023-05-18T15:05:56.343Z,16.69
2023-05-18T15:08:24.130Z,16.48
2023-05-18T15:10:53.954Z,16.31
2023-05-18T15:13:21.913Z,16.42
2023-05-18T15:15:50.124Z,15.95
2023-05-18T15:18:18.487Z,16.13
2023-05-18T15:20:46.764Z,16.18
2023-05-18T15:23:14.686Z,16.15
2023-05-18T15:25:42.445Z,16.18
2023-05-18T15:28:12.679Z,16.27
2023-05-18T15:30:40.461Z,16.10
2023-05-18T15:33:08.253Z,15.93
2023-05-18T15:35:36.375Z,15.98
2023-05-18T15:38:04.144Z,15.97
2023-05-18T15:40:31.968Z,16.07
2023-05-18T15:42:59.933Z,15.77
2023-05-18T15:45:29.080Z,15.92
2023-05-18T15:47:56.923Z,15.74
2023-05-18T15:50:24.656Z,15.75
2023-05-18T15:52:52.889Z,15.73
2023-05-18T15:55:20.942Z,15.72
2023-05-18T15:57:48.604Z,15.75
2023-05-18T16:00:16.940Z,15.78
2023-05-18T16:02:46.213Z,15.58
2023-05-18T16:05:14.128Z,15.49
2023-05-18T16:07:42.258Z,15.63
2023-05-18T16:10:10.358Z,15.32
2023-05-18T16:12:38.101Z,15.32
2023-05-18T16:15:06.722Z,15.42
2023-05-18T16:17:34.437Z,15.21
2023-05-18T16:20:04.113Z,15.24
2023-05-18T16:22:31.974Z,15.17
2023-05-18T16:24:59.799Z,15.12
2023-05-18T16:27:27.578Z,15.21
2023-05-18T16:29:55.265Z,15.23
2023-05-18T16:32:24.539Z,15.18
2023-05-18T16:34:52.794Z,15.16
2023-05-18T16:37:21.957Z,15.17
2023-05-18T16:39:49.635Z,15.11
2023-05-18T16:42:18.460Z,14.99
2023-05-18T16:44:46.107Z,14.84
2023-05-18T16:47:14.060Z,14.83
2023-05-18T16:49:43.973Z,14.90
2023-05-18T16:52:12.113Z,14.84
2023-05-18T16:54:41.103Z,14.95
2023-05-18T16:57:13.003Z,14.77
2023-05-18T16:59:40.715Z,14.79
2023-05-18T17:02:10.307Z,14.65
2023-05-18T17:04:40.600Z,14.74
2023-05-18T17:07:09.911Z,14.72
2023-05-18T17:09:40.106Z,14.73
2023-05-18T17:12:10.302Z,14.64
2023-05-18T17:14:38.739Z,14.70
2023-05-18T17:17:07.065Z,14.66
2023-05-18T17:19:35.705Z,14.55
2023-05-18T17:22:03.571Z,14.34
2023-05-18T17:24:31.524Z,14.47
2023-05-18T17:26:59.210Z,14.61
2023-05-18T17:29:29.192Z,14.61
2023-05-18T17:31:57.098Z,14.58
2023-05-18T17:34:26.631Z,14.46
2023-05-18T17:36:54.922Z,14.49
2023-05-18T17:39:22.707Z,14.42
2023-05-18T17:41:51.496Z,14.46
2023-05-18T17:44:19.580Z,14.38
2023-05-18T17:46:48.946Z,14.34
2023-05-18T17:49:16.821Z,14.35
2023-05-18T17:51:44.749Z,14.31
2023-05-18T17:54:12.906Z,14.36
2023-05-18T17:56:40.835Z,14.22
2023-05-18T17:59:08.699Z,14.31
2023-05-18T18:01:36.771Z,14.28
2023-05-18T18:04:06.423Z,14.28
2023-05-18T18:06:36.068Z,14.16
2023-05-18T18:09:04.853Z,14.21
2023-05-18T18:11:32.844Z,14.21
2023-05-18T18:14:02.115Z,14.13
2023-05-18T18:16:30.049Z,14.09
2023-05-18T18:18:58.267Z,14.10
2023-05-18T18:21:27.386Z,14.02
2023-05-18T18:23:55.018Z,13.97
2023-05-18T18:26:22.859Z,13.94
2023-05-18T18:28:51.181Z,14.06
2023-05-18T18:31:20.816Z,14.04
2023-05-18T18:33:50.316Z,14.00
2023-05-18T18:36:18.615Z,14.01
2023-05-18T18:38:47.748Z,14.00
2023-05-18T18:41:17.292Z,13.98
2023-05-18T18:43:45.640Z,13.93
2023-05-18T18:46:13.729Z,13.95
2023-05-18T18:48:41.736Z,13.98
2023-05-18T18:51:09.359Z,13.91
2023-05-18T18:53:37.127Z,13.83
2023-05-18T18:56:06.409Z,13.86
2023-05-18T18:58:34.069Z,13.85
2023-05-18T19:01:01.677Z,13.83
2023-05-18T19:03:29.431Z,13.80
2023-05-18T19:05:57.061Z,13.76
2023-05-18T19:08:24.750Z,13.71
2023-05-18T19:10:52.443Z,13.70
2023-05-18T19:13:21.705Z,13.70
2023-05-18T19:15:50.332Z,13.71
2023-05-18T19:18:18.079Z,13.68
2023-05-18T19:20:45.723Z,13.67
2023-05-18T19:23:13.373Z,13.61
2023-05-18T19:25:41.172Z,13.59
2023-05-18T19:28:08.806Z,13.66
2023-05-18T19:30:37.775Z,13.70
2023-05-18T19:33:05.512Z,13.70
2023-05-18T19:35:33.538Z,13.65
2023-05-18T19:38:02.158Z,13.56
2023-05-18T19:40:30.088Z,13.53
2023-05-18T19:42:59.633Z,13.54
2023-05-18T19:45:27.407Z,13.48
2023-05-18T19:47:56.532Z,13.52
2023-05-18T19:50:24.644Z,13.43
2023-05-18T19:52:52.310Z,13.41
2023-05-18T19:55:21.148Z,13.44
2023-05-18T19:57:49.007Z,13.43
2023-05-18T20:00:17.325Z,13.44
2023-05-18T20:02:45.043Z,13.38
2023-05-18T20:05:18.753Z,13.38
2023-05-18T20:07:46.727Z,13.35
2023-05-18T20:10:14.405Z,13.36
2023-05-18T20:12:42.044Z,13.36
2023-05-18T20:15:10.321Z,13.35
2023-05-18T20:17:38.095Z,13.32
2023-05-18T20:20:06.291Z,13.33
2023-05-18T20:22:35.370Z,13.28
2023-05-18T20:25:05.376Z,13.27
2023-05-18T20:27:33.108Z,13.24
2023-05-18T20:30:00.880Z,13.17
2023-05-18T20:32:28.882Z,13.11
2023-05-18T20:34:56.567Z,13.08
2023-05-18T20:37:26.086Z,13.10
2023-05-18T20:39:57.296Z,13.07
2023-05-18T20:42:31.068Z,13.07
2023-05-18T20:44:59.050Z,12.95
2023-05-18T20:47:26.714Z,12.98
2023-05-18T20:49:54.488Z,12.91
2023-05-18T20:52:22.126Z,12.94
2023-05-18T20:54:49.982Z,12.96
2023-05-18T20:57:18.998Z,12.97
2023-05-18T20:59:47.350Z,13.02
2023-05-18T21:02:16.882Z,12.98
2023-05-18T21:04:44.642Z,12.94
2023-05-18T21:07:12.254Z,12.93
2023-05-18T21:09:40.081Z,12.93
2023-05-18T21:12:08.315Z,12.90
2023-05-18T21:14:37.432Z,12.94
2023-05-18T21:17:06.345Z,12.95
2023-05-18T21:19:34.012Z,12.78
2023-05-18T21:22:01.874Z,12.90
2023-05-18T21:24:29.800Z,12.89
2023-05-18T21:26:57.566Z,12.80
2023-05-18T21:29:25.200Z,12.84
2023-05-18T21:31:54.225Z,12.66
2023-05-18T21:34:21.903Z,12.81
2023-05-18T21:36:49.798Z,12.75
2023-05-18T21:39:17.429Z,12.73
2023-05-18T21:41:45.274Z,12.71
2023-05-18T21:44:12.924Z,12.75
2023-05-18T21:46:40.962Z,12.73
2023-05-18T21:49:09.991Z,12.69
2023-05-18T21:51:37.762Z,12.65
2023-05-18T21:54:05.509Z,12.64
2023-05-18T21:56:34.602Z,12.65
2023-05-18T21:59:02.265Z,12.64
2023-05-18T22:01:30.082Z,12.61
2023-05-18T22:03:57.827Z,12.52
2023-05-18T22:06:26.974Z,12.49
2023-05-18T22:08:54.611Z,12.54
2023-05-18T22:11:22.885Z,12.44
2023-05-18T22:13:50.854Z,12.48
2023-05-18T22:16:18.683Z,12.29
2023-05-18T22:18:46.486Z,12.35
2023-05-18T22:21:14.214Z,12.29
2023-05-18T22:23:43.342Z,12.28
2023-05-18T22:26:12.106Z,12.36
2023-05-18T22:28:40.173Z,12.36
2023-05-18T22:31:07.792Z,12.32
2023-05-18T22:33:35.416Z,12.30
2023-05-18T22:36:03.222Z,12.32
2023-05-18T22:38:30.982Z,12.33
2023-05-18T22:40:59.926Z,12.31
2023-05-18T22:43:29.093Z,12.34
2023-05-18T22:45:56.762Z,12.27
2023-05-18T22:48:25.375Z,12.21
2023-05-18T22:50:53.044Z,12.19
2023-05-18T22:53:20.717Z,12.13
2023-05-18T22:55:48.388Z,12.07
2023-05-18T22:58:17.781Z,11.96
2023-05-18T23:00:45.408Z,11.99
2023-05-18T23:03:13.301Z,12.06
2023-05-18T23:05:41.508Z,11.95
2023-05-18T23:08:09.488Z,11.94
2023-05-18T23:10:37.585Z,11.85
2023-05-18T23:13:05.251Z,11.94
2023-05-18T23:15:34.317Z,11.91
2023-05-18T23:18:02.030Z,11.95
2023-05-18T23:20:34.430Z,11.92
2023-05-18T23:23:02.154Z,11.90
2023-05-18T23:25:30.258Z,11.90
2023-05-18T23:27:57.928Z,11.91
2023-05-18T23:30:26.034Z,11.83
2023-05-18T23:32:56.443Z,11.94
2023-05-18T23:35:24.833Z,11.86
2023-05-18T23:37:54.878Z,11.74
2023-05-18T23:40:23.545Z,11.83
2023-05-18T23:42:51.979Z,11.81
2023-05-18T23:45:20.366Z,11.77
2023-05-18T23:47:48.750Z,11.88
2023-05-18T23:50:18.632Z,11.85
2023-05-18T23:52:47.784Z,11.84
2023-05-18T23:55:16.077Z,11.75
2023-05-18T23:57:44.636Z,11.69
